CheckWX is a tool to help pilots better visualize weather data.  It is not intended as a substitute for an official pre-flight weather briefing.

13:15:23 UTC

KAXX METAR
Angel Fire Airport
Angel Fire, New Mexico, USA
Current

20 mins ago

KAXX 181255Z AUTO 16007KT 10SM M13/M15 A2991 RMK AO2 T11331147
Observed
Feb-18 @ 12:55 UTC
Wind
  • 160° at 7 KTS
Visibility
10 SM
Temperature
-13°C / 9°F
Dewpoint
-15°C / 5°F
Humidity
85%
Altimeter
29.91" Hg
Pressure
1012.92 hPa
Previous

40 mins ago

KAXX 181235Z AUTO 00000KT 10SM M16/M18 A2990 RMK AO2 T11561176
Observed
Feb-18 @ 12:35 UTC
Visibility
10 SM
Temperature
-16°C / 3°F
Dewpoint
-18°C / -0°F
Humidity
85%
Altimeter
29.9" Hg
Pressure
1012.52 hPa
Previous

60 mins ago

KAXX 181215Z AUTO 00000KT 10SM M15/M16 A2989 RMK AO2 T11521165
Observed
Feb-18 @ 12:15 UTC
Visibility
10 SM
Temperature
-15°C / 5°F
Dewpoint
-17°C / 1°F
Humidity
85%
Altimeter
29.89" Hg
Pressure
1012.22 hPa